Time;durP1;ratioP1;P1;durP2;ratioP2;P2;SDS_P1;SDS_P2;PMS_P1;PMS_P2;Temp;Humidity;BMP_temperature;BMP_pressure;BME280_temperature;BME280_humidity;BME280_pressure;Samples;Min_cycle;Max_cycle;Signal;HPM_P1;HPM_P2
2021/07/26 00:02:08;;;;;;;3.13;1.65;;;;;;;13.84;51.64;99882.63;6151592;23;20022;-76
2021/07/26 00:04:37;;;;;;;1.88;1.70;;;;;;;13.85;51.72;99892.38;6151488;23;20066;-75
2021/07/26 00:07:03;;;;;;;2.80;1.73;;;;;;;13.85;51.81;99899.59;6151608;23;20335;-77
2021/07/26 00:09:29;;;;;;;2.28;1.50;;;;;;;13.84;51.85;99905.94;6101226;23;20028;-76
2021/07/26 00:11:54;;;;;;;1.73;1.60;;;;;;;13.88;51.75;99893.09;6151123;23;20025;-76
2021/07/26 00:14:20;;;;;;;6.15;2.17;;;;;;;13.87;51.64;99899.44;6254597;22;20464;-76
2021/07/26 00:16:46;;;;;;;6.57;1.80;;;;;;;13.87;51.59;99907.50;6151539;23;20449;-75
2021/07/26 00:19:12;;;;;;;5.40;3.28;;;;;;;13.85;52.17;99900.44;6151807;23;20027;-76
2021/07/26 00:21:37;;;;;;;5.03;3.00;;;;;;;13.90;52.39;99912.63;6151428;23;20033;-76
2021/07/26 00:24:04;;;;;;;4.72;2.15;;;;;;;13.90;52.25;99901.88;6150921;23;20479;-77
2021/07/26 00:26:30;;;;;;;2.45;1.55;;;;;;;13.88;52.23;99903.84;6053530;23;20146;-76
2021/07/26 00:28:56;;;;;;;5.70;1.67;;;;;;;13.62;52.38;99884.56;6151727;23;20059;-76
2021/07/26 00:31:22;;;;;;;5.78;2.10;;;;;;;13.64;52.52;99901.41;6151531;22;20275;-76
2021/07/26 00:34:15;;;;;;;2.35;2.15;;;;;;;13.63;52.87;99910.44;6076639;23;20017;-75
2021/07/26 00:36:44;;;;;;;3.42;1.70;;;;;;;13.51;52.71;99906.94;6125899;23;20031;-76
2021/07/26 00:39:11;;;;;;;2.28;1.60;;;;;;;13.55;52.52;99908.41;6101054;23;20027;-75
2021/07/26 00:41:37;;;;;;;4.25;1.85;;;;;;;13.57;52.56;99903.72;6151895;23;20024;-77
2021/07/26 00:44:03;;;;;;;4.80;1.65;;;;;;;13.59;52.79;99909.84;6101365;23;20017;-76
2021/07/26 00:46:29;;;;;;;2.78;1.33;;;;;;;13.64;52.38;99907.63;6125724;23;20066;-75
2021/07/26 00:48:55;;;;;;;2.60;1.63;;;;;;;13.69;52.23;99916.16;6125798;23;20026;-76
2021/07/26 00:51:21;;;;;;;7.65;1.50;;;;;;;13.68;52.22;99909.06;6254301;22;20040;-75
2021/07/26 00:53:47;;;;;;;2.50;1.70;;;;;;;13.66;51.97;99907.50;6125673;23;20474;-76
2021/07/26 00:56:13;;;;;;;4.40;1.70;;;;;;;13.69;51.99;99913.47;6125446;23;20104;-76
2021/07/26 00:58:43;;;;;;;2.13;1.42;;;;;;;13.71;52.00;99908.81;6126348;23;20118;-76
2021/07/26 01:01:09;;;;;;;2.45;1.77;;;;;;;13.72;52.17;99920.41;6077116;23;20071;-77
2021/07/26 01:03:49;;;;;;;2.90;1.65;;;;;;;13.77;51.86;99923.56;6103491;23;20028;-75
2021/07/26 01:06:15;;;;;;;4.85;1.42;;;;;;;13.74;52.19;99919.31;6151192;23;20021;-75
2021/07/26 01:08:42;;;;;;;1.83;1.55;;;;;;;13.78;52.01;99920.75;6077210;23;20028;-76
2021/07/26 01:11:08;;;;;;;6.15;1.40;;;;;;;13.73;52.33;99920.28;6077192;23;20028;-75
2021/07/26 01:13:35;;;;;;;3.42;1.60;;;;;;;13.79;52.04;99927.81;6101019;23;20347;-75
2021/07/26 01:16:00;;;;;;;2.30;1.63;;;;;;;13.79;52.10;99933.19;6101508;23;20101;-75
2021/07/26 01:18:31;;;;;;;3.28;1.98;;;;;;;13.81;51.95;99930.41;6100554;23;20029;-76
2021/07/26 01:21:06;;;;;;;3.28;1.60;;;;;;;13.84;51.83;99931.00;6151643;22;20099;-77
2021/07/26 01:23:35;;;;;;;2.80;1.60;;;;;;;13.95;51.74;99931.91;6125555;23;20097;-75
2021/07/26 01:26:01;;;;;;;3.83;1.97;;;;;;;13.99;51.52;99927.97;6124688;23;20440;-77
2021/07/26 01:28:36;;;;;;;3.50;1.60;;;;;;;14.11;51.54;99929.63;6101192;23;20103;-76
2021/07/26 01:31:02;;;;;;;6.88;1.80;;;;;;;14.17;51.14;99937.16;6124804;23;20532;-75
2021/07/26 01:33:27;;;;;;;3.38;1.73;;;;;;;14.14;51.31;99937.44;6125362;23;20100;-76
2021/07/26 01:35:53;;;;;;;1.98;1.77;;;;;;;14.17;51.54;99937.16;6125197;23;20017;-76
2021/07/26 01:38:20;;;;;;;4.07;1.63;;;;;;;14.21;50.99;99941.28;6125004;23;20026;-76
2021/07/26 01:40:50;;;;;;;4.35;1.80;;;;;;;14.26;51.19;99939.06;6101180;23;20052;-76
2021/07/26 01:43:16;;;;;;;3.00;2.33;;;;;;;14.31;51.54;99944.03;6126014;23;20029;-77
2021/07/26 01:45:42;;;;;;;5.03;2.00;;;;;;;14.39;51.42;99943.38;6125300;23;20020;-76
2021/07/26 01:48:35;;;;;;;7.82;2.00;;;;;;;14.50;51.29;99954.09;6101069;23;20022;-76
2021/07/26 01:51:02;;;;;;;1.98;1.75;;;;;;;14.54;51.17;99953.69;6100922;23;20017;-75
2021/07/26 01:53:29;;;;;;;4.65;1.92;;;;;;;14.63;50.97;99959.25;6125144;23;20070;-76
2021/07/26 01:55:55;;;;;;;8.95;1.80;;;;;;;14.66;50.67;99957.16;6125204;23;20017;-77
2021/07/26 01:58:21;;;;;;;6.45;1.70;;;;;;;14.72;50.52;99958.47;6100413;23;20013;-76
2021/07/26 02:00:47;;;;;;;3.65;2.00;;;;;;;14.77;50.48;99956.22;6124553;23;20033;-76
2021/07/26 02:03:13;;;;;;;7.50;2.55;;;;;;;14.76;50.17;99939.22;6076482;23;20025;-76
2021/07/26 02:05:38;;;;;;;11.57;2.03;;;;;;;14.96;50.12;99971.59;6151116;22;20045;-75
2021/07/26 02:08:04;;;;;;;2.33;1.83;;;;;;;15.00;49.69;99954.19;6125005;23;20050;-75
2021/07/26 02:10:30;;;;;;;9.60;1.92;;;;;;;15.06;49.58;99961.72;6100551;23;20103;-77
2021/07/26 02:12:57;;;;;;;5.25;1.65;;;;;;;14.99;49.20;99952.50;6124611;23;20014;-76
2021/07/26 02:15:23;;;;;;;4.20;2.05;;;;;;;15.09;49.46;99961.47;6150474;23;20391;-76
2021/07/26 02:17:49;;;;;;;4.97;1.70;;;;;;;15.09;49.31;99966.84;6076538;23;20104;-76
2021/07/26 02:20:16;;;;;;;4.30;1.90;;;;;;;15.13;49.04;99962.03;6124883;23;20092;-76
2021/07/26 02:22:43;;;;;;;4.03;1.60;;;;;;;15.18;48.75;99966.00;6150707;23;20020;-77
2021/07/26 02:25:09;;;;;;;4.78;1.95;;;;;;;15.18;49.07;99970.56;6100032;23;20075;-76
2021/07/26 02:27:35;;;;;;;2.95;1.70;;;;;;;15.20;49.03;99964.06;6124919;23;20044;-76
2021/07/26 02:30:01;;;;;;;6.78;2.33;;;;;;;15.32;48.66;99969.31;6149337;23;20111;-78
2021/07/26 02:32:27;;;;;;;5.57;1.73;;;;;;;15.33;48.39;99962.94;6124673;23;20057;-77
2021/07/26 02:34:53;;;;;;;9.82;1.70;;;;;;;15.40;48.49;99964.09;6100321;23;20098;-76
2021/07/26 02:37:18;;;;;;;4.82;1.65;;;;;;;15.44;48.09;99970.91;6100569;23;20063;-77
2021/07/26 02:39:44;;;;;;;6.93;1.70;;;;;;;15.46;48.15;99968.94;6100242;23;20021;-76
2021/07/26 02:42:10;;;;;;;5.82;1.70;;;;;;;15.49;48.03;99979.41;6151103;23;20471;-75
2021/07/26 02:44:36;;;;;;;7.13;3.10;;;;;;;15.45;48.20;99967.22;6151159;22;20384;-76
2021/07/26 02:47:02;;;;;;;3.85;2.00;;;;;;;15.52;47.95;99973.75;6125182;23;20333;-77
2021/07/26 02:49:28;;;;;;;6.88;2.10;;;;;;;15.49;48.17;99976.72;6125034;23;20101;-79
2021/07/26 02:51:53;;;;;;;2.15;1.70;;;;;;;15.47;48.07;99982.25;6100786;23;20049;-78
2021/07/26 02:54:19;;;;;;;5.63;2.17;;;;;;;15.46;48.24;99985.94;6149602;22;20047;-79
2021/07/26 02:56:45;;;;;;;2.75;1.90;;;;;;;15.51;48.76;99974.75;6151314;23;20029;-79
2021/07/26 02:59:11;;;;;;;1.88;1.42;;;;;;;15.52;48.75;99984.53;6151002;22;20032;-76
2021/07/26 03:01:37;;;;;;;3.47;1.60;;;;;;;15.60;48.82;99979.28;6076540;23;20026;-77
2021/07/26 03:04:04;;;;;;;5.85;1.75;;;;;;;15.64;48.66;99975.31;6125020;23;20029;-77
2021/07/26 03:06:31;;;;;;;6.85;1.55;;;;;;;15.79;48.78;99973.09;6101254;23;20448;-77
2021/07/26 03:08:57;;;;;;;3.63;1.55;;;;;;;15.84;48.32;99980.78;6150850;23;20022;-77
2021/07/26 03:11:22;;;;;;;2.15;1.75;;;;;;;15.94;48.21;99984.31;6151019;23;20074;-78
2021/07/26 03:13:48;;;;;;;4.43;1.70;;;;;;;15.97;47.77;99989.44;6150567;23;20039;-78
2021/07/26 03:16:15;;;;;;;5.00;1.60;;;;;;;16.07;47.90;99993.00;6151192;23;20379;-78
2021/07/26 03:18:41;;;;;;;6.10;1.83;;;;;;;16.25;47.72;99988.59;6150364;23;20465;-77
2021/07/26 03:21:07;;;;;;;3.17;2.00;;;;;;;16.23;47.13;99990.56;6099931;23;20116;-79
2021/07/26 03:23:33;;;;;;;10.95;1.65;;;;;;;16.26;47.61;99992.13;6100515;23;20018;-79
2021/07/26 03:25:58;;;;;;;14.43;1.85;;;;;;;16.22;47.41;99988.03;6099609;23;20064;-77
2021/07/26 03:28:24;;;;;;;8.10;2.00;;;;;;;16.27;47.18;99993.84;6124332;23;20041;-77
2021/07/26 03:30:50;;;;;;;1.60;1.42;;;;;;;16.36;47.33;99994.81;6124930;23;20043;-80
2021/07/26 03:33:16;;;;;;;3.83;2.17;;;;;;;16.42;47.38;99995.09;6100505;23;20483;-80
2021/07/26 03:35:42;;;;;;;5.85;2.22;;;;;;;16.42;47.31;99994.25;6100596;23;20028;-79
2021/07/26 03:38:08;;;;;;;3.28;2.00;;;;;;;16.53;47.07;99985.97;6076277;23;20412;-78
2021/07/26 03:40:34;;;;;;;8.50;2.20;;;;;;;16.74;46.59;99994.78;6100078;23;20424;-79
2021/07/26 03:43:01;;;;;;;3.20;1.92;;;;;;;16.79;46.67;99996.19;6101734;23;20024;-78
2021/07/26 03:45:27;;;;;;;3.10;1.83;;;;;;;16.93;45.88;100001.97;6054392;23;20159;-79
2021/07/26 03:47:56;;;;;;;5.50;2.10;;;;;;;17.01;45.83;100003.94;6054021;23;20025;-79
2021/07/26 03:50:22;;;;;;;5.07;1.83;;;;;;;17.06;45.68;99998.94;6151897;23;20525;-78
2021/07/26 03:52:52;;;;;;;2.35;1.90;;;;;;;17.18;45.66;99992.31;6101662;23;20021;-76
2021/07/26 03:55:28;;;;;;;4.85;1.90;;;;;;;17.30;45.05;99997.53;6102518;23;20051;-76
2021/07/26 03:57:54;;;;;;;5.43;2.42;;;;;;;17.47;45.02;100007.56;6103380;23;20057;-76
2021/07/26 04:00:21;;;;;;;9.05;1.77;;;;;;;17.65;44.49;100004.91;6125801;23;20498;-76
2021/07/26 04:03:00;;;;;;;2.88;1.80;;;;;;;17.78;44.07;99999.13;6150302;23;20067;-80
2021/07/26 04:08:23;;;;;;;5.50;1.50;;;;;;;18.17;42.78;100000.53;6103232;23;20017;-74
2021/07/26 04:11:35;;;;;;;2.75;1.60;;;;;;;18.37;42.52;100001.22;6128985;23;20075;-76
2021/07/26 04:13:39;;;;;;;4.97;1.63;;;;;;;18.44;42.35;99990.63;6121475;23;20021;-75
2021/07/26 04:16:05;;;;;;;5.32;1.70;;;;;;;18.53;41.76;99989.66;6078460;23;20022;-74
2021/07/26 04:18:31;;;;;;;5.07;1.67;;;;;;;18.69;42.26;99995.22;6077605;23;20406;-75
2021/07/26 04:20:57;;;;;;;2.88;1.60;;;;;;;18.92;40.99;100000.13;6125951;23;20062;-75
2021/07/26 04:23:23;;;;;;;7.13;1.58;;;;;;;18.96;40.83;99995.22;6125827;23;20071;-75
2021/07/26 04:25:50;;;;;;;4.78;1.55;;;;;;;19.00;40.83;99997.44;6101209;23;20056;-75
2021/07/26 04:28:35;;;;;;;2.83;1.50;;;;;;;19.24;40.40;99991.28;6130279;23;20090;-76
2021/07/26 04:31:01;;;;;;;2.25;1.80;;;;;;;19.35;40.15;99990.16;6123342;23;20079;-76
2021/07/26 04:33:27;;;;;;;8.18;1.80;;;;;;;19.45;39.83;100006.31;6051087;23;20457;-77
2021/07/26 04:35:53;;;;;;;1.67;1.40;;;;;;;19.57;39.84;99994.13;6147669;23;20050;-74
2021/07/26 04:38:19;;;;;;;5.30;1.60;;;;;;;19.64;39.62;99996.06;6150408;23;20044;-75
2021/07/26 04:40:45;;;;;;;5.65;1.75;;;;;;;19.76;39.32;99993.88;6100892;23;20041;-75
2021/07/26 04:43:10;;;;;;;3.33;1.60;;;;;;;19.92;39.29;99994.91;6151090;23;20449;-75
2021/07/26 04:45:36;;;;;;;3.75;1.35;;;;;;;19.91;38.49;99996.78;6149944;23;20021;-74
2021/07/26 04:48:02;;;;;;;5.00;1.27;;;;;;;20.10;38.03;99985.59;6150310;23;20017;-76
2021/07/26 04:50:28;;;;;;;2.67;1.30;;;;;;;20.34;37.65;99998.34;6150522;23;20100;-75
2021/07/26 04:52:54;;;;;;;5.28;1.25;;;;;;;20.28;36.20;99987.31;6150857;23;20374;-75
2021/07/26 04:55:20;;;;;;;5.40;1.95;;;;;;;20.22;36.66;99985.28;6151819;23;20056;-75
2021/07/26 04:58:04;;;;;;;2.45;0.90;;;;;;;20.42;36.53;99992.06;6088675;23;20360;-75
2021/07/26 05:00:30;;;;;;;2.42;1.10;;;;;;;20.58;36.73;99993.97;6077339;23;20017;-76
2021/07/26 05:02:56;;;;;;;6.88;1.25;;;;;;;20.73;36.22;99988.69;6151364;23;20060;-74
2021/07/26 05:05:22;;;;;;;0.55;0.55;;;;;;;20.77;34.78;99995.47;6077256;23;20029;-75
2021/07/26 05:07:48;;;;;;;3.60;0.90;;;;;;;20.89;34.28;99988.63;6228909;23;20028;-75
2021/07/26 05:10:14;;;;;;;3.03;1.30;;;;;;;20.95;34.95;99990.66;6101389;23;20022;-75
2021/07/26 05:12:42;;;;;;;1.30;0.90;;;;;;;20.93;34.63;99989.97;6151600;23;20113;-75
2021/07/26 05:15:09;;;;;;;1.45;0.98;;;;;;;21.04;34.93;99989.59;6151381;23;20026;-77
2021/07/26 05:17:35;;;;;;;3.08;0.85;;;;;;;21.07;33.92;99974.84;6125747;23;20013;-76
2021/07/26 05:20:01;;;;;;;1.55;0.82;;;;;;;21.18;34.05;99981.75;6125598;23;20022;-75
2021/07/26 05:22:27;;;;;;;0.80;0.70;;;;;;;21.33;33.55;99991.75;6179276;23;20113;-76
2021/07/26 05:24:53;;;;;;;3.45;1.13;;;;;;;21.45;33.91;99988.66;6077050;23;20025;-76
2021/07/26 05:27:30;;;;;;;1.30;1.00;;;;;;;21.42;33.00;99997.16;6151449;23;20052;-74
2021/07/26 05:29:56;;;;;;;1.48;0.88;;;;;;;21.52;33.85;99986.91;6151543;23;20018;-74
2021/07/26 05:32:22;;;;;;;1.90;0.82;;;;;;;21.70;33.62;99990.22;6151661;23;20060;-75
2021/07/26 05:34:49;;;;;;;2.05;0.70;;;;;;;22.10;33.29;99984.66;6125609;23;20025;-75
2021/07/26 05:37:16;;;;;;;4.20;1.10;;;;;;;22.50;32.73;99976.19;6151402;23;20359;-75
2021/07/26 05:39:42;;;;;;;4.75;1.10;;;;;;;23.03;32.19;99978.91;6125609;23;20020;-75
2021/07/26 05:42:10;;;;;;;0.98;0.93;;;;;;;23.43;31.22;99976.72;6100997;23;20092;-74
2021/07/26 05:44:40;;;;;;;4.77;1.00;;;;;;;23.24;30.14;99978.13;6125999;23;20074;-75
2021/07/26 05:47:06;;;;;;;2.75;0.90;;;;;;;23.41;29.36;99979.63;6125793;23;20686;-75
2021/07/26 05:49:32;;;;;;;1.27;0.73;;;;;;;23.63;28.95;99976.97;6126072;23;20330;-75
2021/07/26 05:51:58;;;;;;;1.30;0.70;;;;;;;23.90;29.58;99976.25;6077130;23;20020;-76
2021/07/26 05:54:24;;;;;;;1.70;0.73;;;;;;;24.16;28.60;99980.31;6029273;23;20075;-76
2021/07/26 05:56:50;;;;;;;1.17;0.80;;;;;;;23.88;28.77;99970.16;6125796;23;20029;-75
2021/07/26 05:59:16;;;;;;;2.45;0.90;;;;;;;23.75;29.33;99970.84;6151313;23;20115;-76
2021/07/26 06:01:48;;;;;;;2.22;0.80;;;;;;;23.81;28.98;99969.25;6125603;23;20043;-75
2021/07/26 06:04:21;;;;;;;0.68;0.68;;;;;;;23.91;28.34;99972.47;6103823;23;20025;-75
2021/07/26 06:06:48;;;;;;;2.15;0.77;;;;;;;23.73;28.40;99963.88;6125309;23;20063;-75
2021/07/26 06:09:14;;;;;;;5.78;0.85;;;;;;;23.60;29.41;99966.44;6101088;23;20026;-75
2021/07/26 06:11:41;;;;;;;3.35;0.77;;;;;;;23.47;28.02;99970.69;6101120;23;20455;-76
2021/07/26 06:14:07;;;;;;;3.33;0.80;;;;;;;23.12;28.35;99982.38;6125573;23;20066;-77
2021/07/26 06:16:33;;;;;;;1.90;1.30;;;;;;;22.98;28.38;99978.63;6151223;23;20444;-76
2021/07/26 06:19:00;;;;;;;3.10;0.95;;;;;;;22.76;29.19;99983.94;6150953;23;20056;-76
2021/07/26 06:21:26;;;;;;;1.48;1.38;;;;;;;22.66;29.31;99975.19;6101077;23;20104;-76
2021/07/26 06:23:52;;;;;;;1.40;1.20;;;;;;;22.81;29.25;99971.63;6228571;23;20469;-76
2021/07/26 06:26:36;;;;;;;2.33;1.50;;;;;;;22.93;28.91;99976.47;6099643;23;20418;-76
2021/07/26 06:29:02;;;;;;;1.88;1.10;;;;;;;22.90;28.92;99976.78;6120254;23;20022;-74
2021/07/26 06:31:28;;;;;;;2.42;0.93;;;;;;;23.02;29.12;99969.91;6119953;23;20022;-75
2021/07/26 06:33:54;;;;;;;4.60;1.23;;;;;;;23.03;28.91;99971.59;6121782;23;20018;-76
2021/07/26 06:36:20;;;;;;;3.40;1.50;;;;;;;22.93;27.95;99979.19;6121536;23;20488;-76
2021/07/26 06:38:46;;;;;;;9.15;1.25;;;;;;;22.81;28.02;99968.91;6121720;23;20049;-75
2021/07/26 06:41:12;;;;;;;4.72;1.30;;;;;;;23.18;28.43;99974.31;6120308;23;20342;-79
2021/07/26 06:43:38;;;;;;;1.20;1.20;;;;;;;23.77;27.79;99967.94;6121634;23;20426;-78
2021/07/26 06:46:05;;;;;;;3.67;1.20;;;;;;;23.80;26.77;99962.06;6048106;23;20076;-75
2021/07/26 06:48:31;;;;;;;1.30;1.13;;;;;;;23.64;26.96;99962.28;6121629;23;20061;-76
2021/07/26 06:50:57;;;;;;;5.82;1.30;;;;;;;23.59;27.32;99962.03;6119827;23;20056;-77
2021/07/26 06:53:25;;;;;;;2.33;1.20;;;;;;;23.95;27.15;99957.38;6072199;23;20026;-76
2021/07/26 06:55:51;;;;;;;2.22;1.10;;;;;;;23.74;27.39;99963.69;6120073;23;20092;-75
2021/07/26 06:58:17;;;;;;;2.20;0.77;;;;;;;23.46;27.64;99957.22;6144608;23;20404;-77
2021/07/26 07:00:43;;;;;;;0.85;0.82;;;;;;;23.43;28.23;99950.28;6120144;23;20018;-76
2021/07/26 07:03:09;;;;;;;2.67;0.90;;;;;;;23.38;28.00;99952.72;6095692;23;20096;-75
2021/07/26 07:05:37;;;;;;;0.95;0.90;;;;;;;23.47;27.92;99969.88;6048551;23;20108;-75
2021/07/26 07:08:03;;;;;;;4.50;1.80;;;;;;;23.12;27.86;99960.56;6071601;23;20036;-76
2021/07/26 07:10:30;;;;;;;4.82;1.70;;;;;;;22.84;28.00;99969.38;6121532;23;20441;-75
2021/07/26 07:12:56;;;;;;;2.55;1.10;;;;;;;22.52;28.41;99963.22;6121725;23;20029;-75
2021/07/26 07:15:23;;;;;;;1.15;1.02;;;;;;;22.55;28.44;99968.31;6095939;23;20026;-77
2021/07/26 07:17:49;;;;;;;1.58;0.90;;;;;;;22.53;28.71;99954.03;6122810;23;20022;-75
2021/07/26 07:20:16;;;;;;;2.10;1.30;;;;;;;22.89;28.44;99956.03;6121263;23;20101;-76
2021/07/26 07:22:42;;;;;;;1.00;0.95;;;;;;;23.33;27.78;99955.19;6122616;23;20022;-74
2021/07/26 07:25:08;;;;;;;2.70;1.10;;;;;;;23.93;27.09;99956.75;6096430;23;20171;-76
2021/07/26 07:27:34;;;;;;;2.08;1.00;;;;;;;24.32;26.97;99949.97;6121356;23;20021;-75
2021/07/26 07:30:04;;;;;;;2.05;1.02;;;;;;;24.70;26.23;99952.41;6122591;23;20029;-75
2021/07/26 07:32:32;;;;;;;1.58;0.82;;;;;;;24.94;26.24;99941.00;6145763;23;20405;-76
2021/07/26 07:34:58;;;;;;;4.20;1.15;;;;;;;25.40;25.39;99934.09;6122636;23;20529;-76
2021/07/26 07:37:25;;;;;;;1.58;1.30;;;;;;;25.47;25.13;99942.34;6121253;23;20026;-76
2021/07/26 07:39:51;;;;;;;3.17;1.40;;;;;;;25.56;25.35;99941.09;6122226;23;20349;-76
2021/07/26 07:42:17;;;;;;;2.97;1.40;;;;;;;25.31;24.81;99938.91;6250604;22;20018;-77
2021/07/26 07:44:43;;;;;;;1.67;1.08;;;;;;;25.43;24.38;99937.25;6122295;23;20024;-78
2021/07/26 07:47:11;;;;;;;4.65;1.27;;;;;;;25.47;24.13;99932.22;6200094;23;20338;-75
2021/07/26 07:49:37;;;;;;;;;;;;;;;24.93;24.72;99925.59;6123025;23;20345;-75
2021/07/26 07:52:03;;;;;;;4.10;1.17;;;;;;;24.64;25.37;99923.13;6122643;23;19916;-77
2021/07/26 07:54:30;;;;;;;1.70;1.02;;;;;;;24.09;25.82;99943.88;6122943;23;20348;-76
2021/07/26 07:56:56;;;;;;;1.08;1.00;;;;;;;24.00;25.80;99918.59;6122555;23;20109;-76
2021/07/26 07:59:21;;;;;;;1.27;0.60;;;;;;;24.05;25.98;99931.66;6120796;23;20060;-75
2021/07/26 08:01:47;;;;;;;3.05;0.90;;;;;;;24.71;25.66;99924.00;6145083;23;20053;-75
2021/07/26 08:04:15;;;;;;;6.25;1.02;;;;;;;25.26;24.76;99919.50;6121057;23;20037;-75
2021/07/26 08:06:43;;;;;;;1.70;0.80;;;;;;;25.62;24.21;99907.41;6122202;23;20378;-77
2021/07/26 08:09:09;;;;;;;7.38;0.93;;;;;;;26.00;24.27;99920.59;6097358;23;20061;-76
2021/07/26 08:11:38;;;;;;;5.47;1.45;;;;;;;26.15;24.10;99910.25;6122295;23;20021;-75
2021/07/26 08:14:04;;;;;;;7.93;1.00;;;;;;;26.02;23.29;99924.78;6198961;23;20042;-76
2021/07/26 08:16:31;;;;;;;3.85;1.10;;;;;;;25.71;23.27;99914.38;6122448;23;20018;-76
2021/07/26 08:18:57;;;;;;;2.70;0.85;;;;;;;25.98;23.15;99917.19;6121088;23;20164;-76
2021/07/26 08:21:23;;;;;;;0.90;0.90;;;;;;;25.67;23.32;99904.91;6120776;23;20423;-76
2021/07/26 08:23:49;;;;;;;4.25;1.00;;;;;;;25.75;23.71;99918.38;6121027;23;20029;-75
2021/07/26 08:26:15;;;;;;;8.85;1.50;;;;;;;25.72;23.23;99896.88;6120546;22;20018;-76
2021/07/26 08:28:41;;;;;;;0.55;0.55;;;;;;;26.27;23.42;99905.84;6096337;23;20022;-76
2021/07/26 08:31:07;;;;;;;4.35;0.70;;;;;;;26.59;22.99;99897.81;6121591;23;20028;-75
2021/07/26 08:33:33;;;;;;;4.85;0.93;;;;;;;26.88;23.11;99901.97;6122382;23;20021;-76
2021/07/26 08:35:58;;;;;;;1.17;0.68;;;;;;;26.73;23.00;99907.69;6121785;23;20022;-76
2021/07/26 08:38:24;;;;;;;1.35;0.68;;;;;;;26.16;23.96;99904.56;6096459;23;20513;-76
2021/07/26 08:40:50;;;;;;;0.80;0.80;;;;;;;26.11;23.79;99911.75;6096892;23;20041;-75
2021/07/26 08:43:16;;;;;;;3.90;0.75;;;;;;;26.37;23.64;99903.50;6122298;23;20392;-75
2021/07/26 08:45:42;;;;;;;2.75;0.70;;;;;;;26.35;23.31;99902.88;6122484;23;20400;-76
2021/07/26 08:48:09;;;;;;;1.27;0.73;;;;;;;26.29;23.25;99898.25;6120894;23;20064;-75
2021/07/26 08:50:36;;;;;;;1.60;0.60;;;;;;;26.76;23.39;99896.31;6096154;23;20014;-77
2021/07/26 08:53:03;;;;;;;3.67;0.80;;;;;;;27.23;23.05;99888.81;6122722;23;20029;-76
2021/07/26 08:55:29;;;;;;;1.50;0.80;;;;;;;27.22;21.97;99898.06;6120857;23;20097;-75
2021/07/26 08:57:56;;;;;;;1.10;1.00;;;;;;;26.84;22.65;99903.47;6120791;23;20022;-76
2021/07/26 09:00:23;;;;;;;3.05;0.50;;;;;;;27.00;22.43;99885.69;6145356;23;20022;-77
2021/07/26 09:02:50;;;;;;;1.65;0.80;;;;;;;26.88;21.82;99894.56;6120750;23;20018;-76
2021/07/26 09:05:16;;;;;;;2.15;0.90;;;;;;;26.68;22.53;99893.78;6120036;23;20108;-75
2021/07/26 09:07:43;;;;;;;1.45;0.80;;;;;;;26.52;22.47;99903.31;6096436;23;20095;-76
2021/07/26 09:10:13;;;;;;;2.20;0.80;;;;;;;26.90;21.85;99890.78;6121721;23;20022;-77
2021/07/26 09:12:40;;;;;;;0.65;0.65;;;;;;;27.02;21.53;99886.31;6096940;23;20018;-76
2021/07/26 09:15:33;;;;;;;1.17;0.95;;;;;;;27.24;21.38;99890.47;6120901;23;20046;-76
2021/07/26 09:18:06;;;;;;;5.10;0.90;;;;;;;27.49;21.92;99893.28;6132877;23;20045;-75
2021/07/26 09:20:33;;;;;;;5.53;1.05;;;;;;;27.88;21.39;99885.06;6120941;23;20029;-75
2021/07/26 09:23:09;;;;;;;4.25;0.90;;;;;;;28.12;21.47;99886.16;6120656;23;20342;-76
2021/07/26 09:25:35;;;;;;;1.58;0.75;;;;;;;28.44;21.27;99879.56;6120377;22;20013;-76
2021/07/26 09:28:12;;;;;;;0.70;0.60;;;;;;;28.86;20.56;99887.16;6121502;23;20511;-76
2021/07/26 09:30:49;;;;;;;4.38;0.90;;;;;;;28.89;20.39;99878.44;6074545;23;20041;-77
2021/07/26 09:33:24;;;;;;;5.30;1.10;;;;;;;28.18;20.79;99886.09;6122403;23;20025;-76
2021/07/26 09:36:08;;;;;;;3.70;0.88;;;;;;;27.48;21.42;99883.38;6097285;23;20307;-78
2021/07/26 09:38:35;;;;;;;1.77;0.90;;;;;;;27.49;21.64;99881.47;6121539;23;20022;-76
2021/07/26 09:41:01;;;;;;;6.57;0.88;;;;;;;27.39;22.37;99875.63;6096553;23;20022;-76
2021/07/26 09:43:27;;;;;;;3.50;0.80;;;;;;;27.18;22.27;99872.13;6121758;23;20029;-76
2021/07/26 09:45:54;;;;;;;2.83;0.73;;;;;;;27.22;22.53;99867.03;6072143;23;20061;-77
2021/07/26 09:48:22;;;;;;;2.00;0.75;;;;;;;27.18;21.94;99865.81;6096535;23;20028;-76
2021/07/26 09:50:51;;;;;;;5.15;1.27;;;;;;;27.43;21.84;99868.63;6072467;23;20041;-75
2021/07/26 09:53:21;;;;;;;1.33;0.82;;;;;;;26.95;21.91;99860.81;6096321;23;20017;-77
2021/07/26 09:55:51;;;;;;;3.78;0.90;;;;;;;27.04;21.76;99863.09;6145546;23;20446;-76
2021/07/26 09:58:19;;;;;;;10.15;1.27;;;;;;;26.86;21.72;99872.03;6120568;23;20021;-77
2021/07/26 10:00:45;;;;;;;4.68;0.65;;;;;;;26.75;21.89;99867.19;6096476;23;20018;-76
2021/07/26 10:03:13;;;;;;;3.10;1.00;;;;;;;26.91;21.79;99856.81;6121760;23;20353;-75
2021/07/26 10:05:39;;;;;;;2.15;0.80;;;;;;;26.66;22.08;99859.41;6120344;23;20033;-76
2021/07/26 10:08:06;;;;;;;3.08;0.80;;;;;;;26.84;22.00;99832.13;6122369;23;20087;-75
2021/07/26 10:10:33;;;;;;;5.53;1.17;;;;;;;27.65;21.49;99860.91;6122055;23;20022;-75
2021/07/26 10:12:59;;;;;;;2.58;0.80;;;;;;;28.11;21.53;99841.34;6120496;23;20026;-76
2021/07/26 10:15:26;;;;;;;4.68;0.70;;;;;;;28.76;21.56;99841.75;6120453;23;20079;-78
2021/07/26 10:17:52;;;;;;;4.22;1.02;;;;;;;29.10;20.93;99850.47;6095907;23;20445;-75
2021/07/26 10:20:23;;;;;;;1.25;0.80;;;;;;;28.60;20.44;99856.13;6121669;23;20026;-76
2021/07/26 10:23:02;;;;;;;1.38;1.10;;;;;;;27.95;20.94;99844.66;6121841;23;20014;-76
2021/07/26 10:25:41;;;;;;;2.38;1.15;;;;;;;27.96;21.30;99846.31;6097849;23;20037;-76
2021/07/26 10:28:21;;;;;;;4.95;0.90;;;;;;;27.58;21.20;99839.81;6096009;23;20449;-76
2021/07/26 10:30:47;;;;;;;1.52;0.82;;;;;;;27.45;21.67;99836.28;6096349;23;20022;-76
2021/07/26 10:33:12;;;;;;;4.28;1.17;;;;;;;28.03;21.43;99838.88;6071721;23;20029;-75
2021/07/26 10:35:59;;;;;;;2.22;0.85;;;;;;;28.78;20.77;99836.03;6121858;23;20025;-76
2021/07/26 10:38:54;;;;;;;3.85;0.77;;;;;;;28.66;20.56;99830.47;6121488;23;20069;-76
2021/07/26 10:41:59;;;;;;;1.00;0.75;;;;;;;30.08;20.13;99821.69;6140314;23;20037;-76
2021/07/26 10:44:24;;;;;;;5.15;1.25;;;;;;;31.12;18.90;99835.63;6121516;23;20018;-76
2021/07/26 10:46:53;;;;;;;3.95;0.88;;;;;;;30.61;18.23;99825.41;6121827;23;20580;-76
2021/07/26 10:49:50;;;;;;;6.32;1.00;;;;;;;29.94;19.10;99828.47;6121526;23;20076;-77
2021/07/26 10:52:22;;;;;;;6.20;0.80;;;;;;;30.98;18.39;99828.72;6161606;23;20099;-75
2021/07/26 10:54:48;;;;;;;3.78;0.75;;;;;;;31.58;17.59;99817.19;6123234;23;20050;-75
2021/07/26 10:57:14;;;;;;;3.88;0.73;;;;;;;32.27;17.41;99818.91;6122712;23;20025;-75
2021/07/26 11:00:08;;;;;;;2.15;0.70;;;;;;;31.79;16.93;99814.81;6097040;23;20424;-77
2021/07/26 11:02:37;;;;;;;1.70;0.75;;;;;;;30.57;18.18;99805.72;6122783;23;20029;-77
2021/07/26 11:05:39;;;;;;;5.72;1.02;;;;;;;30.57;18.25;99811.25;6096843;23;20495;-76
2021/07/26 11:08:14;;;;;;;3.65;0.80;;;;;;;31.19;18.04;99803.19;6164644;23;20383;-76
2021/07/26 11:10:50;;;;;;;2.00;0.65;;;;;;;31.11;17.82;99806.34;6129786;23;20025;-75
2021/07/26 11:13:16;;;;;;;3.08;0.80;;;;;;;30.31;18.66;99800.72;6097876;23;20048;-76
2021/07/26 11:15:57;;;;;;;2.42;0.95;;;;;;;30.22;18.78;99798.34;6122615;23;20089;-76
2021/07/26 11:18:37;;;;;;;4.60;1.00;;;;;;;29.36;19.05;99810.72;6121472;23;20343;-76
2021/07/26 11:21:21;;;;;;;4.63;1.20;;;;;;;29.91;18.57;99812.44;6099796;23;20033;-76
2021/07/26 11:23:53;;;;;;;2.13;1.08;;;;;;;29.58;19.06;99811.06;6122810;23;20021;-75
2021/07/26 11:26:26;;;;;;;1.42;0.85;;;;;;;31.09;18.25;99807.69;6145730;23;20056;-75
2021/07/26 11:28:54;;;;;;;1.90;0.75;;;;;;;32.55;16.69;99804.13;6255901;22;20391;-76
2021/07/26 11:31:24;;;;;;;5.25;0.90;;;;;;;32.74;16.83;99793.59;6101909;23;20014;-77
2021/07/26 11:33:50;;;;;;;1.70;0.80;;;;;;;32.99;16.12;99795.88;6101932;23;20399;-75
2021/07/26 11:36:16;;;;;;;2.80;0.77;;;;;;;32.05;16.81;99791.22;6152402;23;20020;-76
2021/07/26 11:39:18;;;;;;;3.33;0.60;;;;;;;31.21;17.39;99787.19;6126073;23;20022;-76
2021/07/26 11:41:49;;;;;;;1.95;0.80;;;;;;;30.45;18.06;99794.72;6188808;23;20483;-75
2021/07/26 11:44:15;;;;;;;3.25;0.90;;;;;;;29.95;18.36;99802.63;6136306;23;20452;-76